Grenora, North Dakota
Current Conditions -  °F | °C
As of 9:52 PM on Monday 20 Oct 2014 (Local Time) from KISN Reporting Station
Clear Clear  
Wind Chill: 59°   Ceiling: Unl
Heat Index: 59°   Visibility: 10mi
Dew Point: 42°   Wind: 3mph
Humidity: 53%   Direction: 210°SSW
Pressure: 29.82"   Gusts: NA
Location:  48.62°N, 103.94°W
Report Text: KISN 210252Z AUTO 21003KT 10SM CLR 15/06 A2982 RMK AO2 SLP099 T01500056 55001
Loading
Personal Weather Stations






























Interactive Weather Map
Tropical Storm Tracking
New forecast layout! Learn more

10-Day Weather Forecast

Advertisements
Track Severe Weather on mobile